sensor_id;sensor_type;location;lat;lon;timestamp;temperature;humidity
28460;DHT22;32528;45.712;9.192;2024-01-25T00:01:48;3.70;97.00
28460;DHT22;32528;45.712;9.192;2024-01-25T00:03:49;3.70;97.00
28460;DHT22;32528;45.712;9.192;2024-01-25T00:05:49;3.70;96.90
28460;DHT22;32528;45.712;9.192;2024-01-25T00:07:50;3.70;97.00
28460;DHT22;32528;45.712;9.192;2024-01-25T00:09:51;3.70;97.00
28460;DHT22;32528;45.712;9.192;2024-01-25T00:11:51;3.70;97.10
28460;DHT22;32528;45.712;9.192;2024-01-25T00:13:52;3.60;97.40
28460;DHT22;32528;45.712;9.192;2024-01-25T00:15:53;3.60;97.30
28460;DHT22;32528;45.712;9.192;2024-01-25T00:17:53;3.60;97.30
28460;DHT22;32528;45.712;9.192;2024-01-25T00:19:54;3.60;97.40
28460;DHT22;32528;45.712;9.192;2024-01-25T00:21:55;3.70;97.30
28460;DHT22;32528;45.712;9.192;2024-01-25T00:23:55;3.70;97.30
28460;DHT22;32528;45.712;9.192;2024-01-25T00:25:56;3.70;97.20
28460;DHT22;32528;45.712;9.192;2024-01-25T00:27:59;3.70;97.40
28460;DHT22;32528;45.712;9.192;2024-01-25T00:29:59;3.60;97.30
28460;DHT22;32528;45.712;9.192;2024-01-25T00:32:00;3.60;97.10
28460;DHT22;32528;45.712;9.192;2024-01-25T00:34:02;3.60;97.20
28460;DHT22;32528;45.712;9.192;2024-01-25T00:36:02;3.60;97.40
28460;DHT22;32528;45.712;9.192;2024-01-25T00:38:03;3.60;97.30
28460;DHT22;32528;45.712;9.192;2024-01-25T00:40:04;3.50;97.30
28460;DHT22;32528;45.712;9.192;2024-01-25T00:42:05;3.50;97.30
28460;DHT22;32528;45.712;9.192;2024-01-25T00:44:06;3.50;97.40
28460;DHT22;32528;45.712;9.192;2024-01-25T00:46:07;3.50;97.20
28460;DHT22;32528;45.712;9.192;2024-01-25T00:48:08;3.50;97.40
28460;DHT22;32528;45.712;9.192;2024-01-25T00:50:09;3.30;97.70
28460;DHT22;32528;45.712;9.192;2024-01-25T00:52:10;3.30;97.80
28460;DHT22;32528;45.712;9.192;2024-01-25T00:54:11;3.40;97.70
28460;DHT22;32528;45.712;9.192;2024-01-25T00:56:12;3.40;97.70
28460;DHT22;32528;45.712;9.192;2024-01-25T00:58:13;3.40;97.70
28460;DHT22;32528;45.712;9.192;2024-01-25T01:00:14;3.40;97.70
28460;DHT22;32528;45.712;9.192;2024-01-25T01:02:15;3.40;97.80
28460;DHT22;32528;45.712;9.192;2024-01-25T01:04:15;3.50;97.80
28460;DHT22;32528;45.712;9.192;2024-01-25T01:06:16;3.50;97.50
28460;DHT22;32528;45.712;9.192;2024-01-25T01:08:17;3.40;97.50
28460;DHT22;32528;45.712;9.192;2024-01-25T01:10:17;3.40;97.60
28460;DHT22;32528;45.712;9.192;2024-01-25T01:12:18;3.40;97.50
28460;DHT22;32528;45.712;9.192;2024-01-25T01:14:19;3.50;97.50
28460;DHT22;32528;45.712;9.192;2024-01-25T01:16:19;3.40;97.60
28460;DHT22;32528;45.712;9.192;2024-01-25T01:18:21;3.40;97.50
28460;DHT22;32528;45.712;9.192;2024-01-25T01:20:21;3.30;97.40
28460;DHT22;32528;45.712;9.192;2024-01-25T01:22:22;3.40;97.60
28460;DHT22;32528;45.712;9.192;2024-01-25T01:24:23;3.30;97.60
28460;DHT22;32528;45.712;9.192;2024-01-25T01:26:23;3.30;97.80
28460;DHT22;32528;45.712;9.192;2024-01-25T01:28:24;3.20;97.90
28460;DHT22;32528;45.712;9.192;2024-01-25T01:30:24;3.20;98.00
28460;DHT22;32528;45.712;9.192;2024-01-25T01:32:25;3.30;97.90
28460;DHT22;32528;45.712;9.192;2024-01-25T01:34:26;3.30;97.60
28460;DHT22;32528;45.712;9.192;2024-01-25T01:36:26;3.30;97.60
28460;DHT22;32528;45.712;9.192;2024-01-25T01:38:27;3.30;97.80
28460;DHT22;32528;45.712;9.192;2024-01-25T01:40:28;3.20;97.90
28460;DHT22;32528;45.712;9.192;2024-01-25T01:42:28;3.20;97.90
28460;DHT22;32528;45.712;9.192;2024-01-25T01:44:31;3.30;97.80
28460;DHT22;32528;45.712;9.192;2024-01-25T01:46:35;3.20;97.80
28460;DHT22;32528;45.712;9.192;2024-01-25T01:48:38;3.20;98.00
28460;DHT22;32528;45.712;9.192;2024-01-25T01:50:39;3.10;98.20
28460;DHT22;32528;45.712;9.192;2024-01-25T01:52:40;3.10;98.20
28460;DHT22;32528;45.712;9.192;2024-01-25T01:54:41;3.10;98.10
28460;DHT22;32528;45.712;9.192;2024-01-25T01:56:41;3.10;98.10
28460;DHT22;32528;45.712;9.192;2024-01-25T01:58:45;3.20;98.00
28460;DHT22;32528;45.712;9.192;2024-01-25T02:00:47;3.20;98.10
28460;DHT22;32528;45.712;9.192;2024-01-25T02:02:48;3.10;98.30
28460;DHT22;32528;45.712;9.192;2024-01-25T02:04:49;3.10;98.30
28460;DHT22;32528;45.712;9.192;2024-01-25T02:06:49;3.20;98.10
28460;DHT22;32528;45.712;9.192;2024-01-25T02:08:50;3.20;98.00
28460;DHT22;32528;45.712;9.192;2024-01-25T02:10:53;3.20;98.10
28460;DHT22;32528;45.712;9.192;2024-01-25T02:12:53;3.20;98.20
28460;DHT22;32528;45.712;9.192;2024-01-25T02:14:54;3.10;98.30
28460;DHT22;32528;45.712;9.192;2024-01-25T02:16:55;3.10;98.10
28460;DHT22;32528;45.712;9.192;2024-01-25T02:18:55;3.20;98.00
28460;DHT22;32528;45.712;9.192;2024-01-25T02:20:58;3.20;98.00
28460;DHT22;32528;45.712;9.192;2024-01-25T02:22:58;3.20;98.00
28460;DHT22;32528;45.712;9.192;2024-01-25T02:24:59;3.10;98.10
28460;DHT22;32528;45.712;9.192;2024-01-25T02:27:00;3.10;98.10
28460;DHT22;32528;45.712;9.192;2024-01-25T02:29:00;3.10;97.80
28460;DHT22;32528;45.712;9.192;2024-01-25T02:31:01;3.10;98.10
28460;DHT22;32528;45.712;9.192;2024-01-25T02:33:02;3.10;98.10
28460;DHT22;32528;45.712;9.192;2024-01-25T02:35:03;3.00;98.00
28460;DHT22;32528;45.712;9.192;2024-01-25T02:37:03;3.00;98.10
28460;DHT22;32528;45.712;9.192;2024-01-25T02:39:04;3.00;98.00
28460;DHT22;32528;45.712;9.192;2024-01-25T02:41:05;3.00;98.10
28460;DHT22;32528;45.712;9.192;2024-01-25T02:43:05;3.00;98.30
28460;DHT22;32528;45.712;9.192;2024-01-25T02:45:06;3.00;98.30
28460;DHT22;32528;45.712;9.192;2024-01-25T02:47:07;3.00;98.50
28460;DHT22;32528;45.712;9.192;2024-01-25T02:49:08;3.00;98.50
28460;DHT22;32528;45.712;9.192;2024-01-25T02:51:08;3.00;98.50
28460;DHT22;32528;45.712;9.192;2024-01-25T02:53:09;2.90;98.10
28460;DHT22;32528;45.712;9.192;2024-01-25T02:55:10;2.90;98.10
28460;DHT22;32528;45.712;9.192;2024-01-25T02:57:10;2.90;98.20
28460;DHT22;32528;45.712;9.192;2024-01-25T02:59:11;2.80;98.30
28460;DHT22;32528;45.712;9.192;2024-01-25T03:01:12;2.80;98.30
28460;DHT22;32528;45.712;9.192;2024-01-25T03:03:12;2.90;98.30
28460;DHT22;32528;45.712;9.192;2024-01-25T03:05:13;2.80;98.40
28460;DHT22;32528;45.712;9.192;2024-01-25T03:07:14;2.80;98.40
28460;DHT22;32528;45.712;9.192;2024-01-25T03:09:14;2.80;98.40
28460;DHT22;32528;45.712;9.192;2024-01-25T03:11:15;2.70;98.50
28460;DHT22;32528;45.712;9.192;2024-01-25T03:13:16;2.80;98.60
28460;DHT22;32528;45.712;9.192;2024-01-25T03:15:17;2.80;98.50
28460;DHT22;32528;45.712;9.192;2024-01-25T03:17:17;2.80;98.70
28460;DHT22;32528;45.712;9.192;2024-01-25T03:19:18;2.80;98.40
28460;DHT22;32528;45.712;9.192;2024-01-25T03:21:18;2.90;98.40
28460;DHT22;32528;45.712;9.192;2024-01-25T03:23:19;2.80;98.60
28460;DHT22;32528;45.712;9.192;2024-01-25T03:25:20;2.90;98.50
28460;DHT22;32528;45.712;9.192;2024-01-25T03:27:20;2.90;98.40
28460;DHT22;32528;45.712;9.192;2024-01-25T03:29:21;2.90;98.30
28460;DHT22;32528;45.712;9.192;2024-01-25T03:31:22;3.00;98.30
28460;DHT22;32528;45.712;9.192;2024-01-25T03:33:22;2.90;98.30
28460;DHT22;32528;45.712;9.192;2024-01-25T03:35:23;2.90;98.40
28460;DHT22;32528;45.712;9.192;2024-01-25T03:37:23;2.90;98.40
28460;DHT22;32528;45.712;9.192;2024-01-25T03:39:24;2.80;98.30
28460;DHT22;32528;45.712;9.192;2024-01-25T03:41:25;2.80;98.30
28460;DHT22;32528;45.712;9.192;2024-01-25T03:43:25;2.80;98.30
28460;DHT22;32528;45.712;9.192;2024-01-25T03:45:26;2.80;98.40
28460;DHT22;32528;45.712;9.192;2024-01-25T03:47:27;2.80;98.50
28460;DHT22;32528;45.712;9.192;2024-01-25T03:49:27;2.80;98.40
28460;DHT22;32528;45.712;9.192;2024-01-25T03:51:28;2.80;98.50
28460;DHT22;32528;45.712;9.192;2024-01-25T03:53:29;2.80;98.60
28460;DHT22;32528;45.712;9.192;2024-01-25T03:55:30;2.80;98.60
28460;DHT22;32528;45.712;9.192;2024-01-25T03:57:30;2.80;98.60
28460;DHT22;32528;45.712;9.192;2024-01-25T03:59:31;2.70;98.60
28460;DHT22;32528;45.712;9.192;2024-01-25T04:01:32;2.80;98.50
28460;DHT22;32528;45.712;9.192;2024-01-25T04:03:32;2.80;98.50
28460;DHT22;32528;45.712;9.192;2024-01-25T04:05:33;2.70;98.70
28460;DHT22;32528;45.712;9.192;2024-01-25T04:07:33;2.70;98.80
28460;DHT22;32528;45.712;9.192;2024-01-25T04:09:34;2.70;98.80
28460;DHT22;32528;45.712;9.192;2024-01-25T04:11:36;2.70;99.00
28460;DHT22;32528;45.712;9.192;2024-01-25T04:13:36;2.70;98.90
28460;DHT22;32528;45.712;9.192;2024-01-25T04:15:37;2.70;98.80
28460;DHT22;32528;45.712;9.192;2024-01-25T04:17:38;2.70;98.70
28460;DHT22;32528;45.712;9.192;2024-01-25T04:19:38;2.80;98.50
28460;DHT22;32528;45.712;9.192;2024-01-25T04:21:39;2.80;98.60
28460;DHT22;32528;45.712;9.192;2024-01-25T04:23:40;2.80;98.60
28460;DHT22;32528;45.712;9.192;2024-01-25T04:25:40;2.70;98.70
28460;DHT22;32528;45.712;9.192;2024-01-25T04:27:41;2.70;98.70
28460;DHT22;32528;45.712;9.192;2024-01-25T04:29:42;2.70;98.70
28460;DHT22;32528;45.712;9.192;2024-01-25T04:31:43;2.70;98.70
28460;DHT22;32528;45.712;9.192;2024-01-25T04:33:45;2.70;98.80
28460;DHT22;32528;45.712;9.192;2024-01-25T04:35:46;2.70;98.70
28460;DHT22;32528;45.712;9.192;2024-01-25T04:37:46;2.60;98.70
28460;DHT22;32528;45.712;9.192;2024-01-25T04:39:47;2.70;98.70
28460;DHT22;32528;45.712;9.192;2024-01-25T04:41:47;2.70;98.60
28460;DHT22;32528;45.712;9.192;2024-01-25T04:43:48;2.70;98.80
28460;DHT22;32528;45.712;9.192;2024-01-25T04:45:49;2.70;98.60
28460;DHT22;32528;45.712;9.192;2024-01-25T04:47:49;2.70;98.70
28460;DHT22;32528;45.712;9.192;2024-01-25T04:49:50;2.70;98.70
28460;DHT22;32528;45.712;9.192;2024-01-25T04:51:50;2.60;98.80
28460;DHT22;32528;45.712;9.192;2024-01-25T04:53:51;2.60;98.80
28460;DHT22;32528;45.712;9.192;2024-01-25T04:55:53;2.60;98.80
28460;DHT22;32528;45.712;9.192;2024-01-25T04:57:54;2.60;98.60
28460;DHT22;32528;45.712;9.192;2024-01-25T04:59:55;2.70;98.70
28460;DHT22;32528;45.712;9.192;2024-01-25T05:01:55;2.70;98.60
28460;DHT22;32528;45.712;9.192;2024-01-25T05:03:58;2.60;98.80
28460;DHT22;32528;45.712;9.192;2024-01-25T05:05:59;2.60;98.70
28460;DHT22;32528;45.712;9.192;2024-01-25T05:07:59;2.50;98.90
28460;DHT22;32528;45.712;9.192;2024-01-25T05:10:00;2.50;98.80
28460;DHT22;32528;45.712;9.192;2024-01-25T05:12:01;2.50;98.90
28460;DHT22;32528;45.712;9.192;2024-01-25T05:14:02;2.60;99.00
28460;DHT22;32528;45.712;9.192;2024-01-25T05:16:03;2.60;98.80
28460;DHT22;32528;45.712;9.192;2024-01-25T05:18:04;2.60;98.70
28460;DHT22;32528;45.712;9.192;2024-01-25T05:20:05;2.60;98.80
28460;DHT22;32528;45.712;9.192;2024-01-25T05:22:06;2.60;98.70
28460;DHT22;32528;45.712;9.192;2024-01-25T05:24:07;2.60;98.70
28460;DHT22;32528;45.712;9.192;2024-01-25T05:26:10;2.60;98.70
28460;DHT22;32528;45.712;9.192;2024-01-25T05:28:11;2.60;98.70
28460;DHT22;32528;45.712;9.192;2024-01-25T05:30:11;2.60;98.60
28460;DHT22;32528;45.712;9.192;2024-01-25T05:32:12;2.60;98.70
28460;DHT22;32528;45.712;9.192;2024-01-25T05:34:13;2.60;98.70
28460;DHT22;32528;45.712;9.192;2024-01-25T05:36:13;2.70;98.50
28460;DHT22;32528;45.712;9.192;2024-01-25T05:38:14;2.70;98.40
28460;DHT22;32528;45.712;9.192;2024-01-25T05:40:15;2.60;98.30
28460;DHT22;32528;45.712;9.192;2024-01-25T05:42:15;2.50;98.50
28460;DHT22;32528;45.712;9.192;2024-01-25T05:44:16;2.50;98.40
28460;DHT22;32528;45.712;9.192;2024-01-25T05:46:16;2.50;98.60
28460;DHT22;32528;45.712;9.192;2024-01-25T05:48:17;2.50;98.70
28460;DHT22;32528;45.712;9.192;2024-01-25T05:50:18;2.50;98.60
28460;DHT22;32528;45.712;9.192;2024-01-25T05:52:19;2.40;98.50
28460;DHT22;32528;45.712;9.192;2024-01-25T05:54:21;2.40;98.70
28460;DHT22;32528;45.712;9.192;2024-01-25T05:56:22;2.40;98.70
28460;DHT22;32528;45.712;9.192;2024-01-25T05:58:22;2.40;98.80
28460;DHT22;32528;45.712;9.192;2024-01-25T06:00:23;2.30;98.90
28460;DHT22;32528;45.712;9.192;2024-01-25T06:02:24;2.30;98.80
28460;DHT22;32528;45.712;9.192;2024-01-25T06:04:24;2.40;98.70
28460;DHT22;32528;45.712;9.192;2024-01-25T06:06:25;2.40;98.60
28460;DHT22;32528;45.712;9.192;2024-01-25T06:08:26;2.30;98.50
28460;DHT22;32528;45.712;9.192;2024-01-25T06:10:26;2.40;98.70
28460;DHT22;32528;45.712;9.192;2024-01-25T06:12:27;2.30;98.80
28460;DHT22;32528;45.712;9.192;2024-01-25T06:14:27;2.30;98.90
28460;DHT22;32528;45.712;9.192;2024-01-25T06:16:28;2.30;98.90
28460;DHT22;32528;45.712;9.192;2024-01-25T06:18:29;2.30;98.90
28460;DHT22;32528;45.712;9.192;2024-01-25T06:20:29;2.30;98.70
28460;DHT22;32528;45.712;9.192;2024-01-25T06:22:30;2.30;98.80
28460;DHT22;32528;45.712;9.192;2024-01-25T06:24:30;2.30;98.80
28460;DHT22;32528;45.712;9.192;2024-01-25T06:26:31;2.30;98.80
28460;DHT22;32528;45.712;9.192;2024-01-25T06:28:32;2.30;98.70
28460;DHT22;32528;45.712;9.192;2024-01-25T06:30:32;2.30;98.60
28460;DHT22;32528;45.712;9.192;2024-01-25T06:32:33;2.40;98.70
28460;DHT22;32528;45.712;9.192;2024-01-25T06:34:33;2.30;98.70
28460;DHT22;32528;45.712;9.192;2024-01-25T06:36:34;2.40;98.60
28460;DHT22;32528;45.712;9.192;2024-01-25T06:38:35;2.30;98.60
28460;DHT22;32528;45.712;9.192;2024-01-25T06:40:36;2.20;98.60
28460;DHT22;32528;45.712;9.192;2024-01-25T06:42:37;2.10;99.00
28460;DHT22;32528;45.712;9.192;2024-01-25T06:44:37;2.10;99.20
28460;DHT22;32528;45.712;9.192;2024-01-25T06:46:38;2.10;99.10
28460;DHT22;32528;45.712;9.192;2024-01-25T06:48:38;2.10;99.20
28460;DHT22;32528;45.712;9.192;2024-01-25T06:50:39;2.10;99.00
28460;DHT22;32528;45.712;9.192;2024-01-25T06:52:40;2.20;99.10
28460;DHT22;32528;45.712;9.192;2024-01-25T06:54:40;2.10;99.10
28460;DHT22;32528;45.712;9.192;2024-01-25T06:56:41;2.20;99.00
28460;DHT22;32528;45.712;9.192;2024-01-25T06:58:42;2.20;99.00
28460;DHT22;32528;45.712;9.192;2024-01-25T07:00:43;2.20;98.90
28460;DHT22;32528;45.712;9.192;2024-01-25T07:02:45;2.20;99.00
28460;DHT22;32528;45.712;9.192;2024-01-25T07:04:46;2.20;99.10
28460;DHT22;32528;45.712;9.192;2024-01-25T07:06:46;2.20;99.00
28460;DHT22;32528;45.712;9.192;2024-01-25T07:08:47;2.20;98.90
28460;DHT22;32528;45.712;9.192;2024-01-25T07:10:47;2.30;99.30
28460;DHT22;32528;45.712;9.192;2024-01-25T07:12:48;2.30;99.00
28460;DHT22;32528;45.712;9.192;2024-01-25T07:14:49;2.30;98.80
28460;DHT22;32528;45.712;9.192;2024-01-25T07:16:49;2.40;98.80
28460;DHT22;32528;45.712;9.192;2024-01-25T07:18:50;2.40;98.70
28460;DHT22;32528;45.712;9.192;2024-01-25T07:20:50;2.40;98.70
28460;DHT22;32528;45.712;9.192;2024-01-25T07:22:51;2.40;99.00
28460;DHT22;32528;45.712;9.192;2024-01-25T07:24:52;2.40;99.00
28460;DHT22;32528;45.712;9.192;2024-01-25T07:26:53;2.40;99.00
28460;DHT22;32528;45.712;9.192;2024-01-25T07:28:53;2.50;98.80
28460;DHT22;32528;45.712;9.192;2024-01-25T07:30:58;2.60;98.70
28460;DHT22;32528;45.712;9.192;2024-01-25T07:32:59;2.70;98.70
28460;DHT22;32528;45.712;9.192;2024-01-25T07:34:59;2.70;98.70
28460;DHT22;32528;45.712;9.192;2024-01-25T07:37:00;2.70;98.70
28460;DHT22;32528;45.712;9.192;2024-01-25T07:39:01;2.70;98.50
28460;DHT22;32528;45.712;9.192;2024-01-25T07:41:03;2.90;98.50
28460;DHT22;32528;45.712;9.192;2024-01-25T07:43:04;2.90;98.60
28460;DHT22;32528;45.712;9.192;2024-01-25T07:45:04;2.90;98.70
28460;DHT22;32528;45.712;9.192;2024-01-25T07:47:05;2.90;98.60
28460;DHT22;32528;45.712;9.192;2024-01-25T07:49:08;3.00;98.70
28460;DHT22;32528;45.712;9.192;2024-01-25T07:51:12;3.10;98.80
28460;DHT22;32528;45.712;9.192;2024-01-25T07:53:13;3.10;98.70
28460;DHT22;32528;45.712;9.192;2024-01-25T07:55:16;3.20;98.60
28460;DHT22;32528;45.712;9.192;2024-01-25T07:57:17;3.30;98.50
28460;DHT22;32528;45.712;9.192;2024-01-25T07:59:18;3.40;98.50
28460;DHT22;32528;45.712;9.192;2024-01-25T08:01:18;3.50;98.40
28460;DHT22;32528;45.712;9.192;2024-01-25T08:03:19;3.60;98.20
28460;DHT22;32528;45.712;9.192;2024-01-25T08:05:20;3.70;98.30
28460;DHT22;32528;45.712;9.192;2024-01-25T08:07:21;3.80;98.10
28460;DHT22;32528;45.712;9.192;2024-01-25T08:09:21;3.90;98.10
28460;DHT22;32528;45.712;9.192;2024-01-25T08:11:22;4.00;98.00
28460;DHT22;32528;45.712;9.192;2024-01-25T08:13:23;4.10;97.90
28460;DHT22;32528;45.712;9.192;2024-01-25T08:15:24;4.10;97.90
28460;DHT22;32528;45.712;9.192;2024-01-25T08:17:24;4.20;98.00
28460;DHT22;32528;45.712;9.192;2024-01-25T08:19:25;4.20;97.90
28460;DHT22;32528;45.712;9.192;2024-01-25T08:21:25;4.30;97.80
28460;DHT22;32528;45.712;9.192;2024-01-25T08:23:26;4.40;97.90
28460;DHT22;32528;45.712;9.192;2024-01-25T08:25:27;4.50;97.90
28460;DHT22;32528;45.712;9.192;2024-01-25T08:27:28;4.60;97.80
28460;DHT22;32528;45.712;9.192;2024-01-25T08:29:29;4.70;97.80
28460;DHT22;32528;45.712;9.192;2024-01-25T08:31:29;4.80;97.70
28460;DHT22;32528;45.712;9.192;2024-01-25T08:33:30;4.90;97.50
28460;DHT22;32528;45.712;9.192;2024-01-25T08:35:31;5.10;97.50
28460;DHT22;32528;45.712;9.192;2024-01-25T08:37:31;5.20;97.40
28460;DHT22;32528;45.712;9.192;2024-01-25T08:39:33;5.30;97.20
28460;DHT22;32528;45.712;9.192;2024-01-25T08:41:33;5.50;97.20
28460;DHT22;32528;45.712;9.192;2024-01-25T08:43:34;5.60;97.10
28460;DHT22;32528;45.712;9.192;2024-01-25T08:45:35;5.70;96.80
28460;DHT22;32528;45.712;9.192;2024-01-25T08:47:37;5.80;96.60
28460;DHT22;32528;45.712;9.192;2024-01-25T08:49:38;6.00;96.60
28460;DHT22;32528;45.712;9.192;2024-01-25T08:51:38;6.10;96.40
28460;DHT22;32528;45.712;9.192;2024-01-25T08:53:39;6.20;96.10
28460;DHT22;32528;45.712;9.192;2024-01-25T08:55:40;6.40;95.90
28460;DHT22;32528;45.712;9.192;2024-01-25T08:57:41;6.50;95.70
28460;DHT22;32528;45.712;9.192;2024-01-25T08:59:41;6.50;95.70
28460;DHT22;32528;45.712;9.192;2024-01-25T09:01:42;6.70;95.60
28460;DHT22;32528;45.712;9.192;2024-01-25T09:03:43;6.70;95.70
28460;DHT22;32528;45.712;9.192;2024-01-25T09:05:43;6.90;95.40
28460;DHT22;32528;45.712;9.192;2024-01-25T09:07:47;6.90;95.30
28460;DHT22;32528;45.712;9.192;2024-01-25T09:09:48;7.00;95.30
28460;DHT22;32528;45.712;9.192;2024-01-25T09:11:48;7.10;95.00
28460;DHT22;32528;45.712;9.192;2024-01-25T09:13:49;7.30;95.00
28460;DHT22;32528;45.712;9.192;2024-01-25T09:15:49;7.40;95.00
28460;DHT22;32528;45.712;9.192;2024-01-25T09:17:50;7.40;94.90
28460;DHT22;32528;45.712;9.192;2024-01-25T09:19:51;7.60;94.60
28460;DHT22;32528;45.712;9.192;2024-01-25T09:21:51;7.60;94.40
28460;DHT22;32528;45.712;9.192;2024-01-25T09:23:52;7.70;94.30
28460;DHT22;32528;45.712;9.192;2024-01-25T09:25:53;7.80;94.20
28460;DHT22;32528;45.712;9.192;2024-01-25T09:27:53;7.90;94.00
28460;DHT22;32528;45.712;9.192;2024-01-25T09:29:54;7.90;93.90
28460;DHT22;32528;45.712;9.192;2024-01-25T09:31:54;8.10;93.80
28460;DHT22;32528;45.712;9.192;2024-01-25T09:33:55;8.10;93.60
28460;DHT22;32528;45.712;9.192;2024-01-25T09:35:56;8.30;93.30
28460;DHT22;32528;45.712;9.192;2024-01-25T09:37:56;8.30;93.10
28460;DHT22;32528;45.712;9.192;2024-01-25T09:39:57;8.40;93.00
28460;DHT22;32528;45.712;9.192;2024-01-25T09:41:59;8.50;92.90
28460;DHT22;32528;45.712;9.192;2024-01-25T09:44:00;8.60;92.80
28460;DHT22;32528;45.712;9.192;2024-01-25T09:46:00;8.70;92.70
28460;DHT22;32528;45.712;9.192;2024-01-25T09:48:01;8.80;92.50
28460;DHT22;32528;45.712;9.192;2024-01-25T09:50:04;8.90;92.50
28460;DHT22;32528;45.712;9.192;2024-01-25T09:52:05;9.00;92.40
28460;DHT22;32528;45.712;9.192;2024-01-25T09:54:06;9.10;92.60
28460;DHT22;32528;45.712;9.192;2024-01-25T09:56:08;9.10;92.40
28460;DHT22;32528;45.712;9.192;2024-01-25T09:58:09;9.20;92.30
28460;DHT22;32528;45.712;9.192;2024-01-25T10:00:10;9.30;91.80
28460;DHT22;32528;45.712;9.192;2024-01-25T10:02:12;9.30;92.00
28460;DHT22;32528;45.712;9.192;2024-01-25T10:04:12;9.30;91.80
28460;DHT22;32528;45.712;9.192;2024-01-25T10:06:13;9.40;91.80
28460;DHT22;32528;45.712;9.192;2024-01-25T10:08:14;9.40;91.70
28460;DHT22;32528;45.712;9.192;2024-01-25T10:10:15;9.50;91.70
28460;DHT22;32528;45.712;9.192;2024-01-25T10:12:16;9.60;91.70
28460;DHT22;32528;45.712;9.192;2024-01-25T10:14:17;9.70;91.70
28460;DHT22;32528;45.712;9.192;2024-01-25T10:16:18;9.70;91.80
28460;DHT22;32528;45.712;9.192;2024-01-25T10:18:19;9.80;91.90
28460;DHT22;32528;45.712;9.192;2024-01-25T10:20:20;9.90;91.60
28460;DHT22;32528;45.712;9.192;2024-01-25T10:22:24;10.00;91.50
28460;DHT22;32528;45.712;9.192;2024-01-25T10:24:25;10.10;91.50
28460;DHT22;32528;45.712;9.192;2024-01-25T10:26:26;10.20;91.50
28460;DHT22;32528;45.712;9.192;2024-01-25T10:28:26;10.20;91.40
28460;DHT22;32528;45.712;9.192;2024-01-25T10:30:31;10.30;91.40
28460;DHT22;32528;45.712;9.192;2024-01-25T10:32:32;10.30;91.40
28460;DHT22;32528;45.712;9.192;2024-01-25T10:34:32;10.30;91.30
28460;DHT22;32528;45.712;9.192;2024-01-25T10:36:35;10.40;91.40
28460;DHT22;32528;45.712;9.192;2024-01-25T10:38:37;10.40;91.70
28460;DHT22;32528;45.712;9.192;2024-01-25T10:40:38;10.40;91.40
28460;DHT22;32528;45.712;9.192;2024-01-25T10:42:39;10.50;91.50
28460;DHT22;32528;45.712;9.192;2024-01-25T10:44:40;10.50;91.30
28460;DHT22;32528;45.712;9.192;2024-01-25T10:46:41;10.50;91.40
28460;DHT22;32528;45.712;9.192;2024-01-25T10:48:42;10.50;91.60
28460;DHT22;32528;45.712;9.192;2024-01-25T10:50:43;10.50;91.60
28460;DHT22;32528;45.712;9.192;2024-01-25T10:52:45;10.60;91.70
28460;DHT22;32528;45.712;9.192;2024-01-25T10:54:46;10.60;91.60
28460;DHT22;32528;45.712;9.192;2024-01-25T10:56:47;10.60;91.70
28460;DHT22;32528;45.712;9.192;2024-01-25T10:58:48;10.60;91.60
28460;DHT22;32528;45.712;9.192;2024-01-25T11:00:54;10.60;91.80
28460;DHT22;32528;45.712;9.192;2024-01-25T11:02:56;10.70;91.80
28460;DHT22;32528;45.712;9.192;2024-01-25T11:04:56;10.80;92.10
28460;DHT22;32528;45.712;9.192;2024-01-25T11:07:04;10.80;92.10
28460;DHT22;32528;45.712;9.192;2024-01-25T11:09:05;10.70;91.90
28460;DHT22;32528;45.712;9.192;2024-01-25T11:11:06;10.70;92.10
28460;DHT22;32528;45.712;9.192;2024-01-25T11:13:13;10.70;92.00
28460;DHT22;32528;45.712;9.192;2024-01-25T11:15:17;10.70;91.80
28460;DHT22;32528;45.712;9.192;2024-01-25T11:17:21;10.70;91.80
28460;DHT22;32528;45.712;9.192;2024-01-25T11:19:22;10.70;92.00
28460;DHT22;32528;45.712;9.192;2024-01-25T11:21:29;10.80;91.90
28460;DHT22;32528;45.712;9.192;2024-01-25T11:23:31;10.80;91.70
28460;DHT22;32528;45.712;9.192;2024-01-25T11:25:32;10.80;91.80
28460;DHT22;32528;45.712;9.192;2024-01-25T11:27:33;10.90;91.70
28460;DHT22;32528;45.712;9.192;2024-01-25T11:29:34;10.90;91.60
28460;DHT22;32528;45.712;9.192;2024-01-25T11:31:35;10.80;91.60
28460;DHT22;32528;45.712;9.192;2024-01-25T11:33:36;10.90;91.70
28460;DHT22;32528;45.712;9.192;2024-01-25T11:35:37;10.90;91.80
28460;DHT22;32528;45.712;9.192;2024-01-25T11:37:38;10.90;91.60
28460;DHT22;32528;45.712;9.192;2024-01-25T11:39:39;11.00;91.60
28460;DHT22;32528;45.712;9.192;2024-01-25T11:41:39;11.00;91.60
28460;DHT22;32528;45.712;9.192;2024-01-25T11:43:40;11.00;91.60
28460;DHT22;32528;45.712;9.192;2024-01-25T11:45:41;11.00;91.90
28460;DHT22;32528;45.712;9.192;2024-01-25T11:47:43;11.10;91.80
28460;DHT22;32528;45.712;9.192;2024-01-25T11:49:44;11.10;91.60
28460;DHT22;32528;45.712;9.192;2024-01-25T11:51:45;11.10;91.90
28460;DHT22;32528;45.712;9.192;2024-01-25T11:53:45;11.10;91.90
28460;DHT22;32528;45.712;9.192;2024-01-25T11:55:46;11.10;92.10
28460;DHT22;32528;45.712;9.192;2024-01-25T11:57:47;11.10;92.20
28460;DHT22;32528;45.712;9.192;2024-01-25T11:59:47;11.20;92.30
28460;DHT22;32528;45.712;9.192;2024-01-25T12:01:49;11.20;92.20
28460;DHT22;32528;45.712;9.192;2024-01-25T12:03:50;11.20;92.30
28460;DHT22;32528;45.712;9.192;2024-01-25T12:05:51;11.20;92.30
28460;DHT22;32528;45.712;9.192;2024-01-25T12:07:52;11.20;92.20
28460;DHT22;32528;45.712;9.192;2024-01-25T12:09:56;11.20;92.40
28460;DHT22;32528;45.712;9.192;2024-01-25T12:11:57;11.20;92.30
28460;DHT22;32528;45.712;9.192;2024-01-25T12:14:00;11.20;92.20
28460;DHT22;32528;45.712;9.192;2024-01-25T12:16:01;11.20;92.20
28460;DHT22;32528;45.712;9.192;2024-01-25T12:18:04;11.10;92.00
28460;DHT22;32528;45.712;9.192;2024-01-25T12:20:05;11.10;92.10
28460;DHT22;32528;45.712;9.192;2024-01-25T12:22:11;11.00;92.10
28460;DHT22;32528;45.712;9.192;2024-01-25T12:24:11;11.00;92.20
28460;DHT22;32528;45.712;9.192;2024-01-25T12:26:12;11.00;92.40
28460;DHT22;32528;45.712;9.192;2024-01-25T12:28:13;10.90;92.40
28460;DHT22;32528;45.712;9.192;2024-01-25T12:30:14;11.00;92.40
28460;DHT22;32528;45.712;9.192;2024-01-25T12:32:15;10.90;92.40
28460;DHT22;32528;45.712;9.192;2024-01-25T12:34:15;10.80;92.40
28460;DHT22;32528;45.712;9.192;2024-01-25T12:36:16;10.90;92.40
28460;DHT22;32528;45.712;9.192;2024-01-25T12:38:17;10.90;92.40
28460;DHT22;32528;45.712;9.192;2024-01-25T12:40:17;11.00;92.30
28460;DHT22;32528;45.712;9.192;2024-01-25T12:42:18;11.00;92.10
28460;DHT22;32528;45.712;9.192;2024-01-25T12:44:19;11.00;92.00
28460;DHT22;32528;45.712;9.192;2024-01-25T12:46:20;10.90;92.00
28460;DHT22;32528;45.712;9.192;2024-01-25T12:48:20;10.90;92.20
28460;DHT22;32528;45.712;9.192;2024-01-25T12:50:21;10.90;92.20
28460;DHT22;32528;45.712;9.192;2024-01-25T12:52:21;10.90;92.30
28460;DHT22;32528;45.712;9.192;2024-01-25T12:54:22;10.90;92.30